sensor_id;sensor_type;location;lat;lon;timestamp;P1;durP1;ratioP1;P2;durP2;ratioP2
21089;SDS011;10703;51.020;6.128;2023-08-06T00:00:44;9.07;;;6.07;;
21089;SDS011;10703;51.020;6.128;2023-08-06T00:03:11;6.00;;;5.50;;
21089;SDS011;10703;51.020;6.128;2023-08-06T00:05:40;8.20;;;5.57;;
21089;SDS011;10703;51.020;6.128;2023-08-06T00:08:08;8.53;;;5.47;;
21089;SDS011;10703;51.020;6.128;2023-08-06T00:10:35;5.43;;;4.93;;
21089;SDS011;10703;51.020;6.128;2023-08-06T00:13:02;6.87;;;5.70;;
21089;SDS011;10703;51.020;6.128;2023-08-06T00:15:28;9.87;;;5.40;;
21089;SDS011;10703;51.020;6.128;2023-08-06T00:17:55;7.00;;;5.20;;
21089;SDS011;10703;51.020;6.128;2023-08-06T00:20:22;5.13;;;4.73;;
21089;SDS011;10703;51.020;6.128;2023-08-06T00:22:48;6.23;;;4.90;;
21089;SDS011;10703;51.020;6.128;2023-08-06T00:25:15;5.17;;;4.83;;
21089;SDS011;10703;51.020;6.128;2023-08-06T00:27:42;6.23;;;4.90;;
21089;SDS011;10703;51.020;6.128;2023-08-06T00:30:08;5.37;;;4.60;;
21089;SDS011;10703;51.020;6.128;2023-08-06T00:32:35;5.43;;;4.40;;
21089;SDS011;10703;51.020;6.128;2023-08-06T00:35:02;5.07;;;4.57;;
21089;SDS011;10703;51.020;6.128;2023-08-06T00:37:30;5.30;;;4.80;;
21089;SDS011;10703;51.020;6.128;2023-08-06T00:39:57;6.03;;;4.50;;
21089;SDS011;10703;51.020;6.128;2023-08-06T00:42:23;5.67;;;5.17;;
21089;SDS011;10703;51.020;6.128;2023-08-06T00:44:50;5.73;;;4.80;;
21089;SDS011;10703;51.020;6.128;2023-08-06T00:47:16;4.77;;;4.40;;
21089;SDS011;10703;51.020;6.128;2023-08-06T00:49:43;5.23;;;4.80;;
21089;SDS011;10703;51.020;6.128;2023-08-06T00:52:10;5.13;;;4.73;;
21089;SDS011;10703;51.020;6.128;2023-08-06T00:54:36;5.33;;;4.90;;
21089;SDS011;10703;51.020;6.128;2023-08-06T00:57:03;5.80;;;5.30;;
21089;SDS011;10703;51.020;6.128;2023-08-06T00:59:33;9.57;;;4.70;;
21089;SDS011;10703;51.020;6.128;2023-08-06T01:02:00;5.03;;;4.63;;
21089;SDS011;10703;51.020;6.128;2023-08-06T01:04:27;6.40;;;5.77;;
21089;SDS011;10703;51.020;6.128;2023-08-06T01:15:32;5.17;;;4.67;;
21089;SDS011;10703;51.020;6.128;2023-08-06T01:18:05;5.70;;;5.30;;
21089;SDS011;10703;51.020;6.128;2023-08-06T01:20:32;6.70;;;5.50;;
21089;SDS011;10703;51.020;6.128;2023-08-06T01:22:58;7.03;;;6.00;;
21089;SDS011;10703;51.020;6.128;2023-08-06T01:31:07;9.33;;;5.23;;
21089;SDS011;10703;51.020;6.128;2023-08-06T01:33:38;8.17;;;5.57;;
21089;SDS011;10703;51.020;6.128;2023-08-06T01:36:11;8.43;;;5.40;;
21089;SDS011;10703;51.020;6.128;2023-08-06T01:38:38;6.57;;;5.60;;
21089;SDS011;10703;51.020;6.128;2023-08-06T01:41:05;7.13;;;5.47;;
21089;SDS011;10703;51.020;6.128;2023-08-06T01:43:31;6.20;;;5.63;;
21089;SDS011;10703;51.020;6.128;2023-08-06T01:45:58;5.80;;;5.20;;
21089;SDS011;10703;51.020;6.128;2023-08-06T01:48:24;5.60;;;5.10;;
21089;SDS011;10703;51.020;6.128;2023-08-06T01:50:51;6.10;;;5.53;;
21089;SDS011;10703;51.020;6.128;2023-08-06T01:53:18;6.60;;;5.50;;
21089;SDS011;10703;51.020;6.128;2023-08-06T01:55:50;5.93;;;5.43;;
21089;SDS011;10703;51.020;6.128;2023-08-06T01:58:17;5.87;;;5.00;;
21089;SDS011;10703;51.020;6.128;2023-08-06T02:00:43;5.80;;;5.20;;
21089;SDS011;10703;51.020;6.128;2023-08-06T02:03:10;7.03;;;5.10;;
21089;SDS011;10703;51.020;6.128;2023-08-06T02:05:37;5.40;;;4.90;;
21089;SDS011;10703;51.020;6.128;2023-08-06T02:08:03;8.37;;;5.33;;
21089;SDS011;10703;51.020;6.128;2023-08-06T02:10:30;5.80;;;5.30;;
21089;SDS011;10703;51.020;6.128;2023-08-06T02:12:57;6.73;;;5.00;;
21089;SDS011;10703;51.020;6.128;2023-08-06T02:15:23;6.30;;;5.20;;
21089;SDS011;10703;51.020;6.128;2023-08-06T02:17:50;9.50;;;5.30;;
21089;SDS011;10703;51.020;6.128;2023-08-06T02:20:16;7.43;;;5.13;;
21089;SDS011;10703;51.020;6.128;2023-08-06T02:22:43;5.33;;;4.90;;
21089;SDS011;10703;51.020;6.128;2023-08-06T02:25:10;4.93;;;4.53;;
21089;SDS011;10703;51.020;6.128;2023-08-06T02:27:36;5.40;;;4.90;;
21089;SDS011;10703;51.020;6.128;2023-08-06T02:30:04;5.60;;;5.10;;
21089;SDS011;10703;51.020;6.128;2023-08-06T02:32:31;8.07;;;5.13;;
21089;SDS011;10703;51.020;6.128;2023-08-06T02:34:59;5.50;;;5.00;;
21089;SDS011;10703;51.020;6.128;2023-08-06T02:37:25;6.47;;;4.97;;
21089;SDS011;10703;51.020;6.128;2023-08-06T02:39:52;7.43;;;4.57;;
21089;SDS011;10703;51.020;6.128;2023-08-06T02:42:19;5.00;;;4.60;;
21089;SDS011;10703;51.020;6.128;2023-08-06T02:44:45;5.43;;;4.80;;
21089;SDS011;10703;51.020;6.128;2023-08-06T02:47:12;4.77;;;4.37;;
21089;SDS011;10703;51.020;6.128;2023-08-06T02:49:38;6.00;;;4.70;;
21089;SDS011;10703;51.020;6.128;2023-08-06T02:52:05;6.63;;;4.80;;
21089;SDS011;10703;51.020;6.128;2023-08-06T02:54:32;5.63;;;4.20;;
21089;SDS011;10703;51.020;6.128;2023-08-06T02:56:59;5.33;;;4.60;;
21089;SDS011;10703;51.020;6.128;2023-08-06T02:59:25;5.73;;;4.83;;
21089;SDS011;10703;51.020;6.128;2023-08-06T03:01:52;5.03;;;4.53;;
21089;SDS011;10703;51.020;6.128;2023-08-06T03:04:19;4.97;;;4.57;;
21089;SDS011;10703;51.020;6.128;2023-08-06T03:06:46;5.60;;;4.20;;
21089;SDS011;10703;51.020;6.128;2023-08-06T03:09:13;5.37;;;4.87;;
21089;SDS011;10703;51.020;6.128;2023-08-06T03:11:39;9.33;;;4.40;;
21089;SDS011;10703;51.020;6.128;2023-08-06T03:14:06;7.93;;;4.57;;
21089;SDS011;10703;51.020;6.128;2023-08-06T03:16:33;6.23;;;4.50;;
21089;SDS011;10703;51.020;6.128;2023-08-06T03:18:59;4.80;;;4.17;;
21089;SDS011;10703;51.020;6.128;2023-08-06T03:21:26;5.77;;;4.50;;
21089;SDS011;10703;51.020;6.128;2023-08-06T03:23:53;5.00;;;4.37;;
21089;SDS011;10703;51.020;6.128;2023-08-06T03:26:20;7.80;;;4.90;;
21089;SDS011;10703;51.020;6.128;2023-08-06T03:28:47;4.70;;;4.30;;
21089;SDS011;10703;51.020;6.128;2023-08-06T03:31:13;7.80;;;4.60;;
21089;SDS011;10703;51.020;6.128;2023-08-06T03:33:40;5.27;;;4.43;;
21089;SDS011;10703;51.020;6.128;2023-08-06T03:36:06;8.60;;;4.53;;
21089;SDS011;10703;51.020;6.128;2023-08-06T03:38:33;5.53;;;4.90;;
21089;SDS011;10703;51.020;6.128;2023-08-06T03:41:00;4.90;;;4.50;;
21089;SDS011;10703;51.020;6.128;2023-08-06T03:43:26;5.40;;;4.70;;
21089;SDS011;10703;51.020;6.128;2023-08-06T03:45:53;5.30;;;4.80;;
21089;SDS011;10703;51.020;6.128;2023-08-06T03:48:19;5.47;;;4.90;;
21089;SDS011;10703;51.020;6.128;2023-08-06T03:50:46;5.73;;;4.90;;
21089;SDS011;10703;51.020;6.128;2023-08-06T03:53:13;8.40;;;5.20;;
21089;SDS011;10703;51.020;6.128;2023-08-06T03:55:39;9.43;;;4.80;;
21089;SDS011;10703;51.020;6.128;2023-08-06T03:58:06;5.60;;;5.03;;
21089;SDS011;10703;51.020;6.128;2023-08-06T04:00:32;5.70;;;5.20;;
21089;SDS011;10703;51.020;6.128;2023-08-06T04:03:00;7.43;;;5.37;;
21089;SDS011;10703;51.020;6.128;2023-08-06T04:05:26;6.90;;;5.53;;
21089;SDS011;10703;51.020;6.128;2023-08-06T04:07:53;5.63;;;4.83;;
21089;SDS011;10703;51.020;6.128;2023-08-06T04:10:19;5.77;;;4.30;;
21089;SDS011;10703;51.020;6.128;2023-08-06T04:12:46;6.20;;;5.33;;
21089;SDS011;10703;51.020;6.128;2023-08-06T04:15:14;5.40;;;4.90;;
21089;SDS011;10703;51.020;6.128;2023-08-06T04:17:40;5.00;;;4.57;;
21089;SDS011;10703;51.020;6.128;2023-08-06T04:20:07;4.97;;;4.57;;
21089;SDS011;10703;51.020;6.128;2023-08-06T04:22:34;5.57;;;5.03;;
21089;SDS011;10703;51.020;6.128;2023-08-06T04:25:01;7.90;;;4.80;;
21089;SDS011;10703;51.020;6.128;2023-08-06T04:27:27;6.83;;;4.93;;
21089;SDS011;10703;51.020;6.128;2023-08-06T04:29:54;5.20;;;4.70;;
21089;SDS011;10703;51.020;6.128;2023-08-06T04:32:21;6.93;;;5.37;;
21089;SDS011;10703;51.020;6.128;2023-08-06T04:34:47;6.00;;;5.23;;
21089;SDS011;10703;51.020;6.128;2023-08-06T04:37:14;5.40;;;4.93;;
21089;SDS011;10703;51.020;6.128;2023-08-06T04:39:41;6.27;;;4.70;;
21089;SDS011;10703;51.020;6.128;2023-08-06T04:42:07;5.73;;;4.90;;
21089;SDS011;10703;51.020;6.128;2023-08-06T04:44:34;7.20;;;5.00;;
21089;SDS011;10703;51.020;6.128;2023-08-06T04:47:00;5.40;;;4.90;;
21089;SDS011;10703;51.020;6.128;2023-08-06T04:49:27;8.67;;;4.87;;
21089;SDS011;10703;51.020;6.128;2023-08-06T04:51:54;6.40;;;5.27;;
21089;SDS011;10703;51.020;6.128;2023-08-06T04:54:21;8.53;;;5.70;;
21089;SDS011;10703;51.020;6.128;2023-08-06T04:56:47;7.57;;;5.20;;
21089;SDS011;10703;51.020;6.128;2023-08-06T04:59:14;8.37;;;5.00;;
21089;SDS011;10703;51.020;6.128;2023-08-06T05:01:40;5.20;;;4.80;;
21089;SDS011;10703;51.020;6.128;2023-08-06T05:04:07;5.13;;;4.73;;
21089;SDS011;10703;51.020;6.128;2023-08-06T05:06:34;8.93;;;5.60;;
21089;SDS011;10703;51.020;6.128;2023-08-06T05:09:00;5.50;;;5.00;;
21089;SDS011;10703;51.020;6.128;2023-08-06T05:11:27;6.73;;;4.90;;
21089;SDS011;10703;51.020;6.128;2023-08-06T05:13:53;5.60;;;5.00;;
21089;SDS011;10703;51.020;6.128;2023-08-06T05:16:20;5.33;;;4.73;;
21089;SDS011;10703;51.020;6.128;2023-08-06T05:18:47;5.43;;;4.83;;
21089;SDS011;10703;51.020;6.128;2023-08-06T05:21:13;5.70;;;5.10;;
21089;SDS011;10703;51.020;6.128;2023-08-06T05:23:40;5.73;;;5.10;;
21089;SDS011;10703;51.020;6.128;2023-08-06T05:26:07;4.87;;;4.47;;
21089;SDS011;10703;51.020;6.128;2023-08-06T05:28:34;5.40;;;4.90;;
21089;SDS011;10703;51.020;6.128;2023-08-06T05:31:04;5.30;;;4.90;;
21089;SDS011;10703;51.020;6.128;2023-08-06T05:33:31;4.80;;;4.40;;
21089;SDS011;10703;51.020;6.128;2023-08-06T05:35:57;5.57;;;4.60;;
21089;SDS011;10703;51.020;6.128;2023-08-06T05:38:24;4.70;;;4.30;;
21089;SDS011;10703;51.020;6.128;2023-08-06T05:40:51;4.93;;;4.53;;
21089;SDS011;10703;51.020;6.128;2023-08-06T05:43:17;4.87;;;4.47;;
21089;SDS011;10703;51.020;6.128;2023-08-06T05:45:44;5.60;;;5.03;;
21089;SDS011;10703;51.020;6.128;2023-08-06T05:48:12;5.00;;;4.60;;
21089;SDS011;10703;51.020;6.128;2023-08-06T05:50:39;4.67;;;4.37;;
21089;SDS011;10703;51.020;6.128;2023-08-06T05:53:06;5.00;;;4.60;;
21089;SDS011;10703;51.020;6.128;2023-08-06T05:55:32;4.97;;;4.23;;
21089;SDS011;10703;51.020;6.128;2023-08-06T05:58:00;4.33;;;4.03;;
21089;SDS011;10703;51.020;6.128;2023-08-06T06:00:26;5.20;;;4.07;;
21089;SDS011;10703;51.020;6.128;2023-08-06T06:02:53;4.23;;;3.93;;
21089;SDS011;10703;51.020;6.128;2023-08-06T06:05:20;4.93;;;4.50;;
21089;SDS011;10703;51.020;6.128;2023-08-06T06:07:46;4.60;;;4.20;;
21089;SDS011;10703;51.020;6.128;2023-08-06T06:10:13;4.17;;;3.87;;
21089;SDS011;10703;51.020;6.128;2023-08-06T06:12:40;5.40;;;4.00;;
21089;SDS011;10703;51.020;6.128;2023-08-06T06:15:07;5.50;;;3.90;;
21089;SDS011;10703;51.020;6.128;2023-08-06T06:17:34;3.70;;;3.50;;
21089;SDS011;10703;51.020;6.128;2023-08-06T06:20:01;4.03;;;3.83;;
21089;SDS011;10703;51.020;6.128;2023-08-06T06:22:30;4.03;;;3.83;;
21089;SDS011;10703;51.020;6.128;2023-08-06T06:24:57;4.30;;;4.00;;
21089;SDS011;10703;51.020;6.128;2023-08-06T06:27:23;4.30;;;4.10;;
21089;SDS011;10703;51.020;6.128;2023-08-06T06:29:50;4.90;;;4.50;;
21089;SDS011;10703;51.020;6.128;2023-08-06T06:32:18;4.80;;;4.50;;
21089;SDS011;10703;51.020;6.128;2023-08-06T06:34:45;5.93;;;5.33;;
21089;SDS011;10703;51.020;6.128;2023-08-06T06:37:11;5.07;;;4.67;;
21089;SDS011;10703;51.020;6.128;2023-08-06T06:39:38;5.23;;;4.90;;
21089;SDS011;10703;51.020;6.128;2023-08-06T06:42:05;5.50;;;5.00;;
21089;SDS011;10703;51.020;6.128;2023-08-06T06:44:31;5.93;;;5.37;;
21089;SDS011;10703;51.020;6.128;2023-08-06T06:46:58;5.90;;;5.40;;
21089;SDS011;10703;51.020;6.128;2023-08-06T06:49:24;5.23;;;4.87;;
21089;SDS011;10703;51.020;6.128;2023-08-06T06:51:51;5.60;;;5.10;;
21089;SDS011;10703;51.020;6.128;2023-08-06T06:54:18;5.50;;;5.10;;
21089;SDS011;10703;51.020;6.128;2023-08-06T06:56:45;5.50;;;5.00;;
21089;SDS011;10703;51.020;6.128;2023-08-06T06:59:11;5.87;;;5.43;;
21089;SDS011;10703;51.020;6.128;2023-08-06T07:01:38;5.33;;;4.93;;
21089;SDS011;10703;51.020;6.128;2023-08-06T07:04:05;5.63;;;4.77;;
21089;SDS011;10703;51.020;6.128;2023-08-06T07:06:31;5.27;;;4.87;;
21089;SDS011;10703;51.020;6.128;2023-08-06T07:08:58;5.03;;;4.63;;
21089;SDS011;10703;51.020;6.128;2023-08-06T07:11:25;5.13;;;4.70;;
21089;SDS011;10703;51.020;6.128;2023-08-06T07:13:58;5.40;;;5.00;;
21089;SDS011;10703;51.020;6.128;2023-08-06T07:16:25;4.90;;;4.50;;
21089;SDS011;10703;51.020;6.128;2023-08-06T07:18:53;5.13;;;4.53;;
21089;SDS011;10703;51.020;6.128;2023-08-06T07:21:20;5.10;;;4.70;;
21089;SDS011;10703;51.020;6.128;2023-08-06T07:23:46;4.27;;;3.97;;
21089;SDS011;10703;51.020;6.128;2023-08-06T07:26:16;4.50;;;4.20;;
21089;SDS011;10703;51.020;6.128;2023-08-06T07:28:43;3.87;;;3.60;;
21089;SDS011;10703;51.020;6.128;2023-08-06T07:31:10;4.67;;;3.80;;
21089;SDS011;10703;51.020;6.128;2023-08-06T07:33:40;4.13;;;3.93;;
21089;SDS011;10703;51.020;6.128;2023-08-06T07:36:11;4.00;;;3.80;;
21089;SDS011;10703;51.020;6.128;2023-08-06T07:38:39;3.80;;;3.60;;
21089;SDS011;10703;51.020;6.128;2023-08-06T07:41:06;3.37;;;3.17;;
21089;SDS011;10703;51.020;6.128;2023-08-06T07:43:33;3.43;;;3.13;;
21089;SDS011;10703;51.020;6.128;2023-08-06T07:46:01;4.70;;;3.33;;
21089;SDS011;10703;51.020;6.128;2023-08-06T07:48:28;11.03;;;3.40;;
21089;SDS011;10703;51.020;6.128;2023-08-06T07:50:55;12.73;;;3.53;;
21089;SDS011;10703;51.020;6.128;2023-08-06T07:53:22;4.47;;;3.60;;
21089;SDS011;10703;51.020;6.128;2023-08-06T07:55:50;11.53;;;3.87;;
21089;SDS011;10703;51.020;6.128;2023-08-06T07:58:17;5.50;;;3.60;;
21089;SDS011;10703;51.020;6.128;2023-08-06T08:00:44;6.13;;;4.03;;
21089;SDS011;10703;51.020;6.128;2023-08-06T08:03:12;4.00;;;3.70;;
21089;SDS011;10703;51.020;6.128;2023-08-06T08:05:42;4.10;;;3.70;;
21089;SDS011;10703;51.020;6.128;2023-08-06T08:08:12;9.20;;;4.03;;
21089;SDS011;10703;51.020;6.128;2023-08-06T08:10:39;4.63;;;4.10;;
21089;SDS011;10703;51.020;6.128;2023-08-06T08:13:05;4.90;;;4.20;;
21089;SDS011;10703;51.020;6.128;2023-08-06T08:15:32;5.00;;;4.50;;
21089;SDS011;10703;51.020;6.128;2023-08-06T08:18:00;5.20;;;4.23;;
21089;SDS011;10703;51.020;6.128;2023-08-06T08:20:26;4.70;;;4.30;;
21089;SDS011;10703;51.020;6.128;2023-08-06T08:23:01;5.00;;;4.57;;
21089;SDS011;10703;51.020;6.128;2023-08-06T08:25:28;4.43;;;4.13;;
21089;SDS011;10703;51.020;6.128;2023-08-06T08:27:57;4.53;;;4.17;;
21089;SDS011;10703;51.020;6.128;2023-08-06T08:30:24;4.57;;;4.23;;
21089;SDS011;10703;51.020;6.128;2023-08-06T08:32:51;4.97;;;4.67;;
21089;SDS011;10703;51.020;6.128;2023-08-06T08:35:19;5.40;;;5.00;;
21089;SDS011;10703;51.020;6.128;2023-08-06T08:37:50;5.13;;;4.80;;
21089;SDS011;10703;51.020;6.128;2023-08-06T08:40:17;4.97;;;4.67;;
21089;SDS011;10703;51.020;6.128;2023-08-06T08:42:44;5.30;;;4.90;;
21089;SDS011;10703;51.020;6.128;2023-08-06T08:45:14;5.67;;;5.07;;
21089;SDS011;10703;51.020;6.128;2023-08-06T08:47:41;6.07;;;5.67;;
21089;SDS011;10703;51.020;6.128;2023-08-06T08:50:09;5.67;;;5.13;;
21089;SDS011;10703;51.020;6.128;2023-08-06T08:52:38;5.90;;;5.40;;
21089;SDS011;10703;51.020;6.128;2023-08-06T08:55:07;5.83;;;5.37;;
21089;SDS011;10703;51.020;6.128;2023-08-06T08:57:34;5.87;;;5.37;;
21089;SDS011;10703;51.020;6.128;2023-08-06T09:00:03;6.20;;;5.70;;
21089;SDS011;10703;51.020;6.128;2023-08-06T09:02:31;5.83;;;5.33;;
21089;SDS011;10703;51.020;6.128;2023-08-06T09:04:59;7.00;;;6.13;;
21089;SDS011;10703;51.020;6.128;2023-08-06T09:07:31;7.77;;;5.70;;
21089;SDS011;10703;51.020;6.128;2023-08-06T09:10:03;6.30;;;5.70;;
21089;SDS011;10703;51.020;6.128;2023-08-06T09:12:32;6.37;;;5.77;;
21089;SDS011;10703;51.020;6.128;2023-08-06T09:14:59;6.57;;;5.70;;
21089;SDS011;10703;51.020;6.128;2023-08-06T09:17:28;6.63;;;6.03;;
21089;SDS011;10703;51.020;6.128;2023-08-06T09:19:55;7.07;;;6.00;;
21089;SDS011;10703;51.020;6.128;2023-08-06T09:22:22;6.70;;;5.90;;
21089;SDS011;10703;51.020;6.128;2023-08-06T09:24:49;7.50;;;5.60;;
21089;SDS011;10703;51.020;6.128;2023-08-06T09:27:16;9.73;;;6.07;;
21089;SDS011;10703;51.020;6.128;2023-08-06T09:29:43;10.50;;;6.50;;
21089;SDS011;10703;51.020;6.128;2023-08-06T09:32:11;6.67;;;5.93;;
21089;SDS011;10703;51.020;6.128;2023-08-06T09:34:39;8.77;;;6.50;;
21089;SDS011;10703;51.020;6.128;2023-08-06T09:37:10;9.03;;;6.73;;
21089;SDS011;10703;51.020;6.128;2023-08-06T09:39:38;7.77;;;5.80;;
21089;SDS011;10703;51.020;6.128;2023-08-06T09:42:06;10.73;;;6.13;;
21089;SDS011;10703;51.020;6.128;2023-08-06T09:44:33;6.77;;;5.90;;
21089;SDS011;10703;51.020;6.128;2023-08-06T09:47:02;7.00;;;6.00;;
21089;SDS011;10703;51.020;6.128;2023-08-06T09:52:01;6.40;;;5.70;;
21089;SDS011;10703;51.020;6.128;2023-08-06T09:54:28;6.50;;;5.10;;
21089;SDS011;10703;51.020;6.128;2023-08-06T09:56:56;5.90;;;5.37;;
21089;SDS011;10703;51.020;6.128;2023-08-06T09:59:23;5.93;;;5.33;;
21089;SDS011;10703;51.020;6.128;2023-08-06T10:01:50;8.47;;;5.40;;
21089;SDS011;10703;51.020;6.128;2023-08-06T10:04:19;7.03;;;4.80;;
21089;SDS011;10703;51.020;6.128;2023-08-06T10:06:51;5.40;;;5.00;;
21089;SDS011;10703;51.020;6.128;2023-08-06T10:09:19;7.60;;;4.90;;
21089;SDS011;10703;51.020;6.128;2023-08-06T10:11:48;6.97;;;5.57;;
21089;SDS011;10703;51.020;6.128;2023-08-06T10:14:51;5.30;;;4.90;;
21089;SDS011;10703;51.020;6.128;2023-08-06T10:17:11;6.33;;;4.80;;
21089;SDS011;10703;51.020;6.128;2023-08-06T10:19:38;9.97;;;4.93;;
21089;SDS011;10703;51.020;6.128;2023-08-06T10:22:16;4.83;;;4.30;;
21089;SDS011;10703;51.020;6.128;2023-08-06T10:24:48;7.03;;;4.50;;
21089;SDS011;10703;51.020;6.128;2023-08-06T10:33:10;6.23;;;4.50;;
21089;SDS011;10703;51.020;6.128;2023-08-06T10:40:41;4.03;;;3.50;;
21089;SDS011;10703;51.020;6.128;2023-08-06T10:43:27;5.30;;;3.93;;
21089;SDS011;10703;51.020;6.128;2023-08-06T10:45:54;5.17;;;4.13;;
21089;SDS011;10703;51.020;6.128;2023-08-06T10:50:56;7.03;;;4.00;;
21089;SDS011;10703;51.020;6.128;2023-08-06T10:53:25;4.20;;;3.80;;
21089;SDS011;10703;51.020;6.128;2023-08-06T10:55:51;4.33;;;3.93;;
21089;SDS011;10703;51.020;6.128;2023-08-06T10:58:18;5.77;;;4.47;;
21089;SDS011;10703;51.020;6.128;2023-08-06T11:00:45;4.43;;;3.70;;
21089;SDS011;10703;51.020;6.128;2023-08-06T11:03:12;4.90;;;4.03;;
21089;SDS011;10703;51.020;6.128;2023-08-06T11:05:39;4.40;;;4.00;;
21089;SDS011;10703;51.020;6.128;2023-08-06T11:08:06;4.37;;;3.87;;
21089;SDS011;10703;51.020;6.128;2023-08-06T11:10:33;5.13;;;4.20;;
21089;SDS011;10703;51.020;6.128;2023-08-06T11:13:00;5.63;;;4.50;;
21089;SDS011;10703;51.020;6.128;2023-08-06T11:15:29;5.50;;;3.70;;
21089;SDS011;10703;51.020;6.128;2023-08-06T11:17:56;5.13;;;4.17;;
21089;SDS011;10703;51.020;6.128;2023-08-06T11:20:24;6.63;;;3.90;;
21089;SDS011;10703;51.020;6.128;2023-08-06T11:22:51;4.47;;;4.07;;
21089;SDS011;10703;51.020;6.128;2023-08-06T11:25:20;5.03;;;3.73;;
21089;SDS011;10703;51.020;6.128;2023-08-06T11:27:47;4.13;;;3.77;;
21089;SDS011;10703;51.020;6.128;2023-08-06T11:30:15;5.43;;;3.87;;
21089;SDS011;10703;51.020;6.128;2023-08-06T11:32:45;6.83;;;3.90;;
21089;SDS011;10703;51.020;6.128;2023-08-06T11:35:13;6.03;;;4.07;;
21089;SDS011;10703;51.020;6.128;2023-08-06T11:37:47;6.37;;;3.80;;
21089;SDS011;10703;51.020;6.128;2023-08-06T11:40:14;4.77;;;4.13;;
21089;SDS011;10703;51.020;6.128;2023-08-06T11:42:41;5.33;;;4.37;;
21089;SDS011;10703;51.020;6.128;2023-08-06T11:45:08;4.73;;;4.20;;
21089;SDS011;10703;51.020;6.128;2023-08-06T11:47:37;4.13;;;3.83;;
21089;SDS011;10703;51.020;6.128;2023-08-06T11:50:08;7.93;;;4.10;;
21089;SDS011;10703;51.020;6.128;2023-08-06T11:52:38;5.63;;;4.50;;
21089;SDS011;10703;51.020;6.128;2023-08-06T11:55:06;5.10;;;4.60;;
21089;SDS011;10703;51.020;6.128;2023-08-06T11:57:36;5.13;;;4.13;;
21089;SDS011;10703;51.020;6.128;2023-08-06T12:00:06;5.30;;;4.33;;
21089;SDS011;10703;51.020;6.128;2023-08-06T12:02:35;5.87;;;4.27;;
21089;SDS011;10703;51.020;6.128;2023-08-06T12:05:04;6.60;;;4.87;;
21089;SDS011;10703;51.020;6.128;2023-08-06T12:07:37;5.10;;;4.63;;
21089;SDS011;10703;51.020;6.128;2023-08-06T12:10:05;4.80;;;4.40;;
21089;SDS011;10703;51.020;6.128;2023-08-06T12:12:32;7.03;;;5.07;;
21089;SDS011;10703;51.020;6.128;2023-08-06T12:14:59;5.07;;;4.43;;
21089;SDS011;10703;51.020;6.128;2023-08-06T12:17:27;7.60;;;4.60;;
21089;SDS011;10703;51.020;6.128;2023-08-06T12:19:53;5.00;;;4.53;;
21089;SDS011;10703;51.020;6.128;2023-08-06T12:22:20;6.37;;;4.97;;
21089;SDS011;10703;51.020;6.128;2023-08-06T12:24:49;5.23;;;4.73;;
21089;SDS011;10703;51.020;6.128;2023-08-06T12:27:16;6.70;;;5.00;;
21089;SDS011;10703;51.020;6.128;2023-08-06T12:29:43;8.43;;;5.33;;
21089;SDS011;10703;51.020;6.128;2023-08-06T12:32:11;6.00;;;4.90;;
21089;SDS011;10703;51.020;6.128;2023-08-06T12:34:39;7.10;;;5.10;;
21089;SDS011;10703;51.020;6.128;2023-08-06T12:37:18;5.10;;;4.60;;
21089;SDS011;10703;51.020;6.128;2023-08-06T12:39:45;5.87;;;4.83;;
21089;SDS011;10703;51.020;6.128;2023-08-06T12:42:12;6.07;;;4.67;;
21089;SDS011;10703;51.020;6.128;2023-08-06T12:44:39;5.27;;;4.77;;
21089;SDS011;10703;51.020;6.128;2023-08-06T12:47:09;5.53;;;4.50;;
21089;SDS011;10703;51.020;6.128;2023-08-06T12:49:36;6.13;;;4.70;;
21089;SDS011;10703;51.020;6.128;2023-08-06T12:52:03;6.03;;;4.70;;
21089;SDS011;10703;51.020;6.128;2023-08-06T12:54:32;6.27;;;5.17;;
21089;SDS011;10703;51.020;6.128;2023-08-06T12:57:04;6.13;;;4.17;;
21089;SDS011;10703;51.020;6.128;2023-08-06T12:59:31;7.23;;;4.67;;
21089;SDS011;10703;51.020;6.128;2023-08-06T13:02:03;4.33;;;3.97;;
21089;SDS011;10703;51.020;6.128;2023-08-06T13:04:30;4.80;;;3.73;;
21089;SDS011;10703;51.020;6.128;2023-08-06T13:06:57;5.53;;;4.17;;
21089;SDS011;10703;51.020;6.128;2023-08-06T13:09:24;4.33;;;4.03;;
21089;SDS011;10703;51.020;6.128;2023-08-06T13:11:52;4.60;;;4.17;;
21089;SDS011;10703;51.020;6.128;2023-08-06T13:14:19;4.30;;;4.00;;
21089;SDS011;10703;51.020;6.128;2023-08-06T13:16:46;5.00;;;4.13;;
21089;SDS011;10703;51.020;6.128;2023-08-06T13:19:12;4.70;;;4.30;;
21089;SDS011;10703;51.020;6.128;2023-08-06T13:24:06;4.70;;;3.90;;
21089;SDS011;10703;51.020;6.128;2023-08-06T13:26:34;5.17;;;4.10;;
21089;SDS011;10703;51.020;6.128;2023-08-06T13:29:01;7.33;;;4.03;;
21089;SDS011;10703;51.020;6.128;2023-08-06T13:31:28;4.83;;;4.20;;
21089;SDS011;10703;51.020;6.128;2023-08-06T13:33:55;6.73;;;4.27;;
21089;SDS011;10703;51.020;6.128;2023-08-06T13:36:24;5.57;;;4.30;;
21089;SDS011;10703;51.020;6.128;2023-08-06T13:38:52;6.47;;;4.30;;
21089;SDS011;10703;51.020;6.128;2023-08-06T13:41:19;4.47;;;3.80;;
21089;SDS011;10703;51.020;6.128;2023-08-06T13:43:46;5.83;;;3.70;;
21089;SDS011;10703;51.020;6.128;2023-08-06T13:46:12;3.70;;;3.50;;
21089;SDS011;10703;51.020;6.128;2023-08-06T13:48:43;4.30;;;3.90;;
21089;SDS011;10703;51.020;6.128;2023-08-06T13:51:11;4.37;;;3.70;;
21089;SDS011;10703;51.020;6.128;2023-08-06T13:53:38;5.50;;;3.90;;
21089;SDS011;10703;51.020;6.128;2023-08-06T13:56:06;3.90;;;3.70;;
21089;SDS011;10703;51.020;6.128;2023-08-06T13:58:33;4.00;;;3.70;;
21089;SDS011;10703;51.020;6.128;2023-08-06T14:01:00;6.13;;;3.40;;
21089;SDS011;10703;51.020;6.128;2023-08-06T14:03:27;4.40;;;4.00;;
21089;SDS011;10703;51.020;6.128;2023-08-06T14:05:53;4.40;;;4.00;;
21089;SDS011;10703;51.020;6.128;2023-08-06T14:08:23;3.60;;;3.40;;
21089;SDS011;10703;51.020;6.128;2023-08-06T14:10:51;4.30;;;3.93;;
21089;SDS011;10703;51.020;6.128;2023-08-06T14:13:18;4.33;;;3.70;;
21089;SDS011;10703;51.020;6.128;2023-08-06T14:15:45;3.87;;;3.57;;
21089;SDS011;10703;51.020;6.128;2023-08-06T14:18:15;4.13;;;3.70;;
21089;SDS011;10703;51.020;6.128;2023-08-06T14:20:42;6.90;;;5.00;;
21089;SDS011;10703;51.020;6.128;2023-08-06T14:23:09;4.87;;;4.47;;
21089;SDS011;10703;51.020;6.128;2023-08-06T14:25:37;5.73;;;4.00;;
21089;SDS011;10703;51.020;6.128;2023-08-06T14:28:04;4.30;;;4.00;;
21089;SDS011;10703;51.020;6.128;2023-08-06T14:30:33;4.30;;;3.90;;
21089;SDS011;10703;51.020;6.128;2023-08-06T14:33:00;4.70;;;3.67;;
21089;SDS011;10703;51.020;6.128;2023-08-06T14:35:46;4.07;;;3.77;;
21089;SDS011;10703;51.020;6.128;2023-08-06T14:38:13;4.00;;;3.70;;
21089;SDS011;10703;51.020;6.128;2023-08-06T14:40:39;3.87;;;3.67;;
21089;SDS011;10703;51.020;6.128;2023-08-06T14:43:06;3.90;;;3.60;;
21089;SDS011;10703;51.020;6.128;2023-08-06T14:45:33;5.90;;;3.70;;
21089;SDS011;10703;51.020;6.128;2023-08-06T14:48:03;6.07;;;4.03;;
21089;SDS011;10703;51.020;6.128;2023-08-06T14:50:30;4.70;;;4.10;;
21089;SDS011;10703;51.020;6.128;2023-08-06T14:52:56;4.33;;;4.00;;
21089;SDS011;10703;51.020;6.128;2023-08-06T14:55:24;8.03;;;4.27;;
21089;SDS011;10703;51.020;6.128;2023-08-06T14:57:51;4.30;;;3.90;;
21089;SDS011;10703;51.020;6.128;2023-08-06T15:00:21;4.40;;;4.00;;
21089;SDS011;10703;51.020;6.128;2023-08-06T15:02:47;4.47;;;4.17;;
21089;SDS011;10703;51.020;6.128;2023-08-06T15:05:14;5.53;;;3.80;;
21089;SDS011;10703;51.020;6.128;2023-08-06T15:07:41;4.20;;;3.87;;
21089;SDS011;10703;51.020;6.128;2023-08-06T15:10:08;5.97;;;4.37;;
21089;SDS011;10703;51.020;6.128;2023-08-06T15:12:52;6.63;;;3.80;;
21089;SDS011;10703;51.020;6.128;2023-08-06T15:15:18;4.10;;;3.77;;
21089;SDS011;10703;51.020;6.128;2023-08-06T15:17:45;3.93;;;3.70;;
21089;SDS011;10703;51.020;6.128;2023-08-06T15:20:12;4.57;;;3.63;;
21089;SDS011;10703;51.020;6.128;2023-08-06T15:22:39;4.10;;;3.80;;